createdAt,value
2017-08-24T00:01:07.432Z,13.46
2017-08-24T00:03:34.883Z,13.48
2017-08-24T00:06:02.362Z,13.42
2017-08-24T00:08:29.820Z,13.44
2017-08-24T00:10:57.285Z,13.32
2017-08-24T00:13:24.762Z,13.39
2017-08-24T00:15:52.226Z,13.29
2017-08-24T00:18:19.681Z,13.15
2017-08-24T00:20:47.162Z,13.13
2017-08-24T00:23:14.609Z,13.26
2017-08-24T00:25:42.266Z,13.33
2017-08-24T00:28:09.745Z,13.50
2017-08-24T00:30:37.215Z,13.43
2017-08-24T00:33:04.672Z,13.29
2017-08-24T00:35:32.145Z,13.42
2017-08-24T00:37:59.618Z,13.43
2017-08-24T00:40:27.064Z,13.34
2017-08-24T00:42:54.513Z,13.36
2017-08-24T00:45:22.071Z,13.28
2017-08-24T00:47:49.537Z,13.07
2017-08-24T00:50:17.020Z,13.17
2017-08-24T00:52:44.473Z,13.06
2017-08-24T00:55:11.925Z,13.04
2017-08-24T00:57:39.405Z,12.94
2017-08-24T01:00:06.893Z,13.10
2017-08-24T01:02:34.344Z,13.06
2017-08-24T01:05:01.793Z,12.89
2017-08-24T01:07:29.265Z,12.98
2017-08-24T01:09:56.717Z,12.83
2017-08-24T01:12:24.206Z,12.87
2017-08-24T01:14:52.021Z,12.87
2017-08-24T01:17:19.474Z,12.91
2017-08-24T01:19:46.926Z,12.92
2017-08-24T01:22:14.393Z,12.93
2017-08-24T01:24:41.843Z,12.93
2017-08-24T01:27:09.329Z,12.89
2017-08-24T01:29:36.801Z,12.97
2017-08-24T01:32:04.261Z,12.97
2017-08-24T01:34:31.737Z,12.88
2017-08-24T01:36:59.198Z,12.81
2017-08-24T01:39:26.677Z,12.75
2017-08-24T01:41:54.136Z,12.69
2017-08-24T01:44:21.610Z,12.79
2017-08-24T01:46:56.924Z,12.70
2017-08-24T01:49:24.401Z,12.65
2017-08-24T01:51:51.874Z,12.59
2017-08-24T01:54:19.362Z,12.55
2017-08-24T01:56:46.818Z,12.59
2017-08-24T01:59:14.274Z,12.55
2017-08-24T02:01:41.885Z,12.49
2017-08-24T02:04:09.340Z,12.59
2017-08-24T02:06:36.789Z,12.54
2017-08-24T02:09:04.271Z,12.56
2017-08-24T02:11:31.721Z,12.45
2017-08-24T02:13:59.205Z,12.49
2017-08-24T02:16:26.665Z,12.47
2017-08-24T02:18:54.137Z,12.28
2017-08-24T02:21:21.597Z,12.26
2017-08-24T02:23:49.049Z,12.37
2017-08-24T02:26:16.525Z,12.39
2017-08-24T02:28:43.977Z,12.33
2017-08-24T02:31:11.574Z,12.52
2017-08-24T02:33:39.031Z,12.41
2017-08-24T02:36:06.486Z,12.28
2017-08-24T02:38:34.261Z,12.26
2017-08-24T02:41:01.709Z,12.26
2017-08-24T02:43:29.165Z,12.22
2017-08-24T02:45:56.656Z,12.31
2017-08-24T02:48:24.117Z,12.16
2017-08-24T02:50:51.734Z,12.11
2017-08-24T02:53:19.192Z,12.16
2017-08-24T02:55:46.648Z,12.30
2017-08-24T02:58:14.133Z,12.33
2017-08-24T03:00:41.585Z,13.25
2017-08-24T03:03:09.069Z,14.02
2017-08-24T03:05:36.521Z,13.93
2017-08-24T03:08:03.976Z,14.37
2017-08-24T03:10:31.445Z,13.77
2017-08-24T03:12:58.902Z,13.94
2017-08-24T03:15:26.377Z,13.63
2017-08-24T03:17:54.738Z,13.12
2017-08-24T03:20:22.193Z,12.45
2017-08-24T03:22:49.683Z,12.76
2017-08-24T03:25:17.138Z,13.36
2017-08-24T03:27:44.595Z,13.46
2017-08-24T03:30:12.078Z,13.84
2017-08-24T03:32:39.523Z,13.91
2017-08-24T03:35:06.982Z,13.75
2017-08-24T03:37:34.457Z,13.43
2017-08-24T03:40:01.919Z,12.60
2017-08-24T03:42:29.401Z,12.81
2017-08-24T03:44:56.859Z,13.60
2017-08-24T03:47:24.322Z,14.02
2017-08-24T03:49:51.796Z,13.06
2017-08-24T03:52:19.248Z,12.73
2017-08-24T03:54:46.706Z,12.63
2017-08-24T03:57:14.200Z,12.43
2017-08-24T03:59:41.660Z,12.28
2017-08-24T04:02:09.114Z,12.28
2017-08-24T04:04:36.585Z,12.73
2017-08-24T04:07:04.064Z,12.46
2017-08-24T04:09:31.525Z,12.11
2017-08-24T04:11:59.022Z,12.04
2017-08-24T04:14:26.718Z,12.21
2017-08-24T04:16:54.174Z,12.28
2017-08-24T04:19:21.758Z,12.42
2017-08-24T04:21:49.227Z,12.34
2017-08-24T04:24:16.717Z,12.63
2017-08-24T04:26:44.172Z,12.67
2017-08-24T04:29:11.657Z,12.53
2017-08-24T04:31:39.106Z,12.89
2017-08-24T04:34:06.594Z,12.93
2017-08-24T04:36:34.043Z,13.04
2017-08-24T04:39:01.492Z,13.09
2017-08-24T04:41:28.966Z,12.95
2017-08-24T04:43:56.420Z,13.08
2017-08-24T04:46:23.897Z,13.02
2017-08-24T04:48:51.362Z,12.80
2017-08-24T04:51:18.838Z,13.09
2017-08-24T04:53:46.319Z,12.68
2017-08-24T04:56:13.769Z,12.91
2017-08-24T04:58:41.249Z,13.19
2017-08-24T05:01:08.701Z,12.90
2017-08-24T05:03:36.152Z,13.20
2017-08-24T05:06:03.638Z,13.63
2017-08-24T05:08:31.092Z,13.55
2017-08-24T05:10:58.569Z,14.12
2017-08-24T05:13:26.029Z,14.22
2017-08-24T05:15:53.503Z,14.00
2017-08-24T05:18:20.970Z,13.77
2017-08-24T05:20:48.425Z,13.90
2017-08-24T05:23:15.906Z,13.68
2017-08-24T05:25:43.356Z,13.81
2017-08-24T05:28:10.830Z,13.81
2017-08-24T05:30:38.285Z,14.09
2017-08-24T05:33:05.776Z,14.08
2017-08-24T05:35:33.239Z,14.16
2017-08-24T05:38:00.689Z,14.04
2017-08-24T05:40:28.173Z,14.05
2017-08-24T05:42:55.628Z,14.23
2017-08-24T05:45:23.084Z,14.23
2017-08-24T05:47:50.560Z,14.06
2017-08-24T05:50:18.014Z,14.15
2017-08-24T05:52:45.492Z,14.38
2017-08-24T05:55:12.956Z,14.69
2017-08-24T05:57:40.429Z,14.77
2017-08-24T06:00:07.908Z,14.59
2017-08-24T06:02:35.398Z,14.68
2017-08-24T06:05:02.857Z,15.08
2017-08-24T06:07:30.313Z,14.96
2017-08-24T06:09:57.789Z,14.88
2017-08-24T06:12:25.245Z,14.96
2017-08-24T06:14:52.696Z,15.37
2017-08-24T06:17:20.340Z,15.29
2017-08-24T06:19:47.794Z,15.28
2017-08-24T06:22:15.245Z,15.64
2017-08-24T06:24:42.716Z,15.62
2017-08-24T06:27:10.194Z,15.76
2017-08-24T06:29:37.673Z,15.77
2017-08-24T06:32:05.132Z,15.91
2017-08-24T06:34:32.585Z,15.85
2017-08-24T06:37:00.052Z,16.09
2017-08-24T06:39:27.533Z,16.00
2017-08-24T06:41:54.998Z,16.29
2017-08-24T06:44:22.457Z,16.48
2017-08-24T06:46:49.933Z,16.08
2017-08-24T06:49:17.382Z,15.91
2017-08-24T06:51:44.861Z,16.55
2017-08-24T06:54:12.552Z,16.91
2017-08-24T06:56:40.013Z,16.40
2017-08-24T06:59:07.474Z,16.57
2017-08-24T07:01:34.958Z,16.82
2017-08-24T07:04:02.416Z,17.05
2017-08-24T07:06:29.872Z,17.39
2017-08-24T07:08:57.346Z,17.09
2017-08-24T07:11:24.821Z,17.27
2017-08-24T07:13:52.280Z,17.51
2017-08-24T07:16:19.775Z,17.22
2017-08-24T07:18:47.260Z,17.53
2017-08-24T07:21:14.709Z,17.56
2017-08-24T07:23:42.164Z,18.00
2017-08-24T07:26:09.648Z,18.03
2017-08-24T07:28:37.102Z,17.92
2017-08-24T07:31:04.602Z,17.72
2017-08-24T07:33:32.062Z,18.22
2017-08-24T07:35:59.523Z,18.47
2017-08-24T07:38:26.992Z,18.62
2017-08-24T07:40:54.453Z,18.24
2017-08-24T07:43:21.893Z,18.70
2017-08-24T07:45:49.370Z,18.88
2017-08-24T07:48:16.835Z,19.21
2017-08-24T07:50:44.314Z,19.09
2017-08-24T07:53:11.772Z,19.45
2017-08-24T07:55:39.241Z,19.23
2017-08-24T07:58:06.714Z,19.16
2017-08-24T08:00:34.223Z,19.64
2017-08-24T08:03:01.674Z,19.96
2017-08-24T08:05:29.148Z,20.00
2017-08-24T08:07:56.603Z,19.98
2017-08-24T08:10:24.065Z,20.12
2017-08-24T08:12:51.513Z,20.14
2017-08-24T08:15:19.269Z,20.29
2017-08-24T08:17:46.740Z,20.17
2017-08-24T08:20:14.217Z,20.73
2017-08-24T08:22:41.669Z,20.15
2017-08-24T08:25:09.142Z,20.33
2017-08-24T08:27:36.589Z,20.84
2017-08-24T08:30:04.090Z,20.38
2017-08-24T08:32:31.561Z,20.53
2017-08-24T08:34:59.030Z,21.03
2017-08-24T08:37:26.797Z,21.09
2017-08-24T08:39:54.237Z,21.47
2017-08-24T08:42:21.682Z,21.05
2017-08-24T08:44:49.175Z,20.90
2017-08-24T08:47:16.610Z,21.51
2017-08-24T08:49:44.084Z,21.61
2017-08-24T08:52:11.524Z,21.55
2017-08-24T08:54:39.002Z,21.28
2017-08-24T08:57:06.449Z,21.41
2017-08-24T08:59:33.913Z,22.03
2017-08-24T09:02:01.379Z,22.06
2017-08-24T09:04:29.144Z,22.19
2017-08-24T09:06:56.593Z,22.34
2017-08-24T09:09:24.053Z,22.42
2017-08-24T09:11:51.517Z,22.62
2017-08-24T09:14:18.971Z,22.68
2017-08-24T09:16:46.439Z,22.89
2017-08-24T09:19:13.909Z,22.86
2017-08-24T09:21:41.381Z,23.24
2017-08-24T09:24:08.853Z,22.72
2017-08-24T09:26:36.334Z,22.98
2017-08-24T09:29:03.811Z,22.42
2017-08-24T09:31:31.252Z,22.44
2017-08-24T09:33:58.700Z,23.43
2017-08-24T09:36:26.158Z,23.44
2017-08-24T09:38:53.601Z,23.83
2017-08-24T09:41:21.064Z,23.49
2017-08-24T09:43:48.519Z,24.19
2017-08-24T09:46:15.974Z,24.07
2017-08-24T09:48:43.444Z,24.44
2017-08-24T09:51:10.921Z,23.77
2017-08-24T09:53:38.401Z,24.36
2017-08-24T09:56:05.865Z,24.30
2017-08-24T09:58:33.331Z,24.40
2017-08-24T10:01:00.778Z,24.60
2017-08-24T10:03:28.253Z,24.04
2017-08-24T10:05:55.946Z,24.50
2017-08-24T10:08:23.415Z,25.32
2017-08-24T10:10:50.888Z,24.76
2017-08-24T10:13:18.333Z,25.47
2017-08-24T10:15:45.797Z,25.09
2017-08-24T10:18:13.274Z,25.07
2017-08-24T10:20:40.744Z,25.66
2017-08-24T10:23:08.213Z,25.42
2017-08-24T10:25:35.665Z,25.70
2017-08-24T10:28:03.104Z,25.12
2017-08-24T10:30:30.581Z,26.10
2017-08-24T10:32:58.029Z,26.41
2017-08-24T10:35:25.492Z,25.90
2017-08-24T10:37:52.929Z,25.49
2017-08-24T10:40:20.377Z,26.13
2017-08-24T10:42:47.841Z,26.77
2017-08-24T10:45:15.291Z,26.44
2017-08-24T10:47:42.878Z,26.28
2017-08-24T10:50:10.354Z,25.68
2017-08-24T10:52:37.813Z,26.01
2017-08-24T10:55:05.257Z,25.74
2017-08-24T10:57:32.736Z,26.17
2017-08-24T11:00:00.177Z,26.90
2017-08-24T11:02:27.633Z,26.96
2017-08-24T11:04:55.101Z,27.53
2017-08-24T11:07:22.550Z,27.96
2017-08-24T11:09:50.016Z,27.95
2017-08-24T11:12:17.465Z,28.08
2017-08-24T11:14:44.911Z,28.04
2017-08-24T11:17:12.377Z,28.14
2017-08-24T11:19:39.859Z,27.72
2017-08-24T11:22:07.334Z,27.42
2017-08-24T11:24:34.779Z,27.55
2017-08-24T11:27:02.230Z,27.32
2017-08-24T11:29:30.273Z,27.30
2017-08-24T11:31:57.745Z,28.18
2017-08-24T11:34:25.185Z,29.35
2017-08-24T11:36:52.640Z,29.65
2017-08-24T11:39:20.109Z,29.99
2017-08-24T11:41:47.555Z,28.60
2017-08-24T11:44:15.030Z,28.80
2017-08-24T11:46:42.477Z,29.86
2017-08-24T11:49:09.945Z,30.81
2017-08-24T11:51:37.400Z,30.88
2017-08-24T11:54:05.179Z,31.20
2017-08-24T11:56:32.621Z,31.19
2017-08-24T11:59:00.103Z,32.52
2017-08-24T12:01:27.557Z,29.88
2017-08-24T12:03:55.041Z,30.07
2017-08-24T12:06:22.518Z,29.94
2017-08-24T12:08:49.956Z,29.82
2017-08-24T12:11:17.410Z,31.04
2017-08-24T12:13:44.884Z,30.50
2017-08-24T12:16:12.333Z,29.36
2017-08-24T12:18:39.798Z,29.91
2017-08-24T12:21:07.251Z,31.32
2017-08-24T12:23:34.716Z,32.95
2017-08-24T12:26:02.157Z,31.48
2017-08-24T12:28:29.634Z,30.71
2017-08-24T12:30:57.102Z,33.01
2017-08-24T12:33:24.556Z,31.98
2017-08-24T12:35:52.021Z,33.47
2017-08-24T12:38:19.465Z,34.98
2017-08-24T12:40:46.933Z,33.67
2017-08-24T12:43:14.385Z,32.14
2017-08-24T12:45:41.849Z,32.55
2017-08-24T12:48:09.305Z,30.63
2017-08-24T12:50:36.774Z,30.48
2017-08-24T12:53:04.220Z,31.59
2017-08-24T12:55:31.673Z,32.71
2017-08-24T12:57:59.138Z,33.83
2017-08-24T13:00:26.609Z,32.05
2017-08-24T13:02:54.061Z,30.95
2017-08-24T13:05:21.539Z,30.43
2017-08-24T13:07:49.012Z,31.01
2017-08-24T13:10:16.458Z,31.88
2017-08-24T13:12:43.906Z,32.14
2017-08-24T13:15:11.374Z,32.35
2017-08-24T13:17:38.822Z,32.70
2017-08-24T13:20:06.309Z,33.34
2017-08-24T13:22:33.789Z,34.57
2017-08-24T13:25:01.234Z,34.04
2017-08-24T13:27:28.680Z,33.94
2017-08-24T13:29:56.165Z,32.61
2017-08-24T13:32:23.633Z,31.36
2017-08-24T13:34:51.081Z,30.86
2017-08-24T13:37:18.549Z,30.97
2017-08-24T13:39:45.996Z,32.41
2017-08-24T13:42:13.465Z,31.06
2017-08-24T13:44:40.912Z,31.30
2017-08-24T13:47:08.361Z,32.03
2017-08-24T13:49:35.830Z,33.26
2017-08-24T13:52:03.281Z,32.74
2017-08-24T13:54:30.747Z,33.78
2017-08-24T13:56:58.194Z,33.92
2017-08-24T13:59:25.668Z,34.22
2017-08-24T14:01:53.116Z,33.82
2017-08-24T14:04:20.555Z,34.09
2017-08-24T14:06:48.026Z,33.90
2017-08-24T14:09:15.473Z,33.65
2017-08-24T14:11:42.950Z,33.72
2017-08-24T14:14:10.414Z,31.74
2017-08-24T14:16:37.874Z,31.80
2017-08-24T14:19:05.330Z,32.43
2017-08-24T14:21:32.792Z,32.60
2017-08-24T14:24:00.241Z,33.11
2017-08-24T14:26:27.716Z,32.30
2017-08-24T14:28:55.161Z,31.92
2017-08-24T14:31:22.625Z,33.23
2017-08-24T14:33:50.074Z,34.23
2017-08-24T14:36:17.548Z,32.74
2017-08-24T14:38:44.986Z,32.31
2017-08-24T14:41:12.458Z,32.55
2017-08-24T14:43:39.933Z,33.19
2017-08-24T14:46:07.373Z,34.79
2017-08-24T14:48:34.849Z,35.04
2017-08-24T14:51:02.295Z,34.79
2017-08-24T14:53:29.757Z,34.83
2017-08-24T14:55:57.228Z,34.49
2017-08-24T14:58:24.689Z,33.40
2017-08-24T15:00:52.226Z,32.46
2017-08-24T15:03:19.686Z,34.44
2017-08-24T15:05:47.125Z,34.23
2017-08-24T15:08:14.602Z,34.64
2017-08-24T15:10:42.043Z,34.61
2017-08-24T15:13:09.525Z,33.61
2017-08-24T15:15:36.978Z,33.86
2017-08-24T15:18:04.426Z,34.63
2017-08-24T15:20:31.903Z,34.26
2017-08-24T15:22:59.361Z,35.22
2017-08-24T15:25:26.837Z,35.30
2017-08-24T15:27:54.432Z,35.82
2017-08-24T15:30:21.882Z,35.88
2017-08-24T15:32:49.333Z,34.72
2017-08-24T15:35:16.917Z,34.79
2017-08-24T15:37:44.365Z,35.18
2017-08-24T15:40:11.809Z,34.59
2017-08-24T15:42:39.281Z,34.88
2017-08-24T15:45:06.742Z,33.35
2017-08-24T15:47:34.205Z,34.75
2017-08-24T15:50:01.693Z,34.50
2017-08-24T15:52:29.169Z,34.37
2017-08-24T15:54:56.620Z,33.68
2017-08-24T15:57:25.784Z,34.87
2017-08-24T15:59:53.256Z,33.97
2017-08-24T16:02:20.705Z,33.38
2017-08-24T16:04:48.170Z,33.65
2017-08-24T16:07:15.616Z,34.60
2017-08-24T16:09:43.401Z,35.17
2017-08-24T16:12:10.850Z,34.83
2017-08-24T16:14:38.297Z,34.74
2017-08-24T16:17:05.765Z,34.41
2017-08-24T16:19:33.227Z,34.80
2017-08-24T16:22:00.685Z,34.93
2017-08-24T16:24:28.128Z,34.27
2017-08-24T16:26:55.578Z,33.47
2017-08-24T16:29:23.057Z,35.04
2017-08-24T16:31:50.841Z,35.23
2017-08-24T16:34:18.281Z,35.14
2017-08-24T16:36:45.740Z,35.40
2017-08-24T16:39:13.207Z,34.99
2017-08-24T16:41:40.673Z,34.94
2017-08-24T16:44:08.112Z,34.27
2017-08-24T16:46:35.581Z,34.02
2017-08-24T16:49:03.042Z,33.74
2017-08-24T16:51:30.508Z,33.65
2017-08-24T16:53:57.949Z,33.25
2017-08-24T16:56:25.396Z,33.10
2017-08-24T16:58:52.878Z,33.31
2017-08-24T17:01:20.319Z,32.95
2017-08-24T17:03:47.789Z,33.13
2017-08-24T17:06:15.240Z,33.29
2017-08-24T17:08:42.686Z,33.14
2017-08-24T17:11:10.154Z,33.01
2017-08-24T17:13:37.608Z,32.65
2017-08-24T17:16:05.078Z,31.82
2017-08-24T17:18:32.644Z,31.21
2017-08-24T17:21:00.102Z,30.39
2017-08-24T17:23:27.549Z,29.95
2017-08-24T17:25:55.021Z,29.11
2017-08-24T17:28:22.480Z,29.19
2017-08-24T17:30:50.562Z,28.89
2017-08-24T17:33:18.898Z,28.50
2017-08-24T17:35:46.349Z,28.10
2017-08-24T17:38:13.812Z,27.53
2017-08-24T17:40:41.261Z,27.43
2017-08-24T17:43:08.711Z,27.55
2017-08-24T17:45:36.188Z,27.16
2017-08-24T17:48:03.642Z,26.66
2017-08-24T17:50:31.113Z,26.29
2017-08-24T17:52:58.586Z,26.24
2017-08-24T17:55:26.033Z,26.08
2017-08-24T17:57:53.501Z,25.99
2017-08-24T18:00:20.946Z,25.90
2017-08-24T18:02:48.403Z,25.73
2017-08-24T18:05:15.881Z,25.91
2017-08-24T18:07:43.357Z,25.46
2017-08-24T18:10:10.805Z,25.40
2017-08-24T18:12:38.266Z,25.60
2017-08-24T18:15:05.737Z,25.22
2017-08-24T18:17:33.216Z,24.93
2017-08-24T18:20:00.676Z,24.63
2017-08-24T18:22:28.139Z,24.50
2017-08-24T18:24:55.608Z,24.38
2017-08-24T18:27:23.065Z,24.50
2017-08-24T18:29:50.541Z,24.63
2017-08-24T18:32:18.004Z,24.55
2017-08-24T18:34:45.461Z,24.28
2017-08-24T18:37:12.954Z,24.06
2017-08-24T18:39:40.401Z,23.72
2017-08-24T18:42:07.854Z,23.80
2017-08-24T18:44:35.328Z,23.65
2017-08-24T18:47:02.805Z,23.50
2017-08-24T18:49:30.257Z,23.35
2017-08-24T18:51:57.926Z,23.38
2017-08-24T18:54:25.435Z,23.35
2017-08-24T18:56:52.919Z,23.36
2017-08-24T18:59:20.384Z,23.40
2017-08-24T19:01:47.866Z,23.25
2017-08-24T19:04:15.349Z,23.02
2017-08-24T19:06:42.811Z,22.99
2017-08-24T19:09:11.726Z,22.96
2017-08-24T19:11:40.250Z,22.95
2017-08-24T19:14:08.949Z,22.74
2017-08-24T19:16:36.863Z,22.75
2017-08-24T19:19:04.630Z,22.67
2017-08-24T19:21:32.381Z,22.56
2017-08-24T19:24:00.364Z,22.57
2017-08-24T19:26:29.076Z,22.44
2017-08-24T19:28:56.535Z,22.55
2017-08-24T19:31:23.991Z,22.46
2017-08-24T19:33:51.986Z,22.43
2017-08-24T19:36:20.492Z,22.37
2017-08-24T19:38:48.927Z,22.23
2017-08-24T19:41:16.478Z,22.31
2017-08-24T19:43:43.935Z,22.24
2017-08-24T19:46:11.394Z,22.18
2017-08-24T19:48:40.325Z,22.41
2017-08-24T19:51:07.926Z,22.43
2017-08-24T19:53:35.393Z,22.28
2017-08-24T19:56:02.844Z,22.23
2017-08-24T19:58:31.531Z,22.08
2017-08-24T20:00:59.132Z,22.06
2017-08-24T20:03:26.884Z,22.11
2017-08-24T20:05:54.337Z,22.06
2017-08-24T20:08:22.593Z,21.96
2017-08-24T20:10:51.122Z,22.10
2017-08-24T20:13:18.710Z,22.11
2017-08-24T20:15:46.173Z,22.02
2017-08-24T20:18:13.621Z,21.95
2017-08-24T20:20:42.752Z,21.97
2017-08-24T20:23:10.437Z,21.89
2017-08-24T20:25:38.299Z,21.78
2017-08-24T20:28:05.780Z,21.69
2017-08-24T20:30:33.233Z,21.77
2017-08-24T20:33:00.719Z,21.85
2017-08-24T20:35:29.036Z,21.97
2017-08-24T20:37:56.585Z,22.00
2017-08-24T20:40:24.053Z,21.94
2017-08-24T20:42:52.061Z,21.81
2017-08-24T20:45:19.541Z,21.75
2017-08-24T20:47:47.002Z,21.83
2017-08-24T20:50:14.484Z,21.70
2017-08-24T20:52:41.942Z,21.64
2017-08-24T20:55:09.432Z,21.77
2017-08-24T20:57:36.892Z,21.70
2017-08-24T21:00:04.565Z,21.56
2017-08-24T21:02:32.020Z,21.43
2017-08-24T21:04:59.478Z,21.68
2017-08-24T21:07:26.948Z,21.69
2017-08-24T21:09:54.401Z,21.63
2017-08-24T21:12:21.867Z,21.67
2017-08-24T21:14:49.338Z,21.63
2017-08-24T21:17:16.812Z,21.69
2017-08-24T21:19:44.294Z,21.66
2017-08-24T21:22:11.746Z,21.60
2017-08-24T21:24:39.229Z,21.57
2017-08-24T21:27:06.677Z,21.57
2017-08-24T21:29:34.150Z,21.47
2017-08-24T21:32:01.627Z,21.53
2017-08-24T21:34:29.073Z,21.47
2017-08-24T21:36:56.773Z,21.67
2017-08-24T21:39:24.226Z,21.80
2017-08-24T21:41:51.673Z,21.92
2017-08-24T21:44:19.161Z,22.00
2017-08-24T21:46:46.617Z,22.01
2017-08-24T21:49:14.127Z,22.27
2017-08-24T21:51:41.581Z,22.43
2017-08-24T21:54:09.044Z,22.71
2017-08-24T21:56:36.515Z,23.09
2017-08-24T21:59:03.968Z,23.24
2017-08-24T22:01:31.413Z,23.20
2017-08-24T22:03:58.889Z,23.14
2017-08-24T22:06:26.339Z,23.18
2017-08-24T22:08:53.785Z,23.24
2017-08-24T22:11:21.264Z,23.12
2017-08-24T22:13:48.711Z,23.06
2017-08-24T22:16:16.166Z,22.99
2017-08-24T22:18:43.632Z,22.87
2017-08-24T22:21:11.093Z,22.99
2017-08-24T22:23:38.564Z,22.88
2017-08-24T22:26:06.010Z,22.73
2017-08-24T22:28:33.488Z,22.94
2017-08-24T22:31:00.958Z,22.94
2017-08-24T22:33:28.661Z,22.92
2017-08-24T22:35:56.109Z,22.90
2017-08-24T22:38:23.559Z,22.95
2017-08-24T22:40:51.049Z,22.96
2017-08-24T22:43:18.509Z,22.78
2017-08-24T22:45:45.966Z,22.71
2017-08-24T22:48:13.433Z,22.74
2017-08-24T22:50:40.872Z,22.62
2017-08-24T22:56:14.763Z,22.45
2017-08-24T22:58:47.765Z,22.42
2017-08-24T23:04:18.045Z,22.25
2017-08-24T23:06:45.490Z,22.17
2017-08-24T23:09:12.956Z,22.14
2017-08-24T23:11:40.400Z,22.12
2017-08-24T23:14:07.874Z,22.05
2017-08-24T23:16:35.325Z,21.94
2017-08-24T23:19:02.825Z,21.97
2017-08-24T23:21:30.285Z,21.95
2017-08-24T23:23:57.730Z,21.67
2017-08-24T23:26:25.209Z,21.74
2017-08-24T23:28:52.657Z,21.68
2017-08-24T23:31:20.101Z,21.53
2017-08-24T23:33:47.583Z,21.55
2017-08-24T23:36:15.045Z,21.57
2017-08-24T23:38:42.525Z,21.46
2017-08-24T23:41:09.972Z,21.38
2017-08-24T23:43:37.714Z,21.37
2017-08-24T23:46:05.164Z,21.25
2017-08-24T23:48:32.623Z,21.28
2017-08-24T23:51:00.102Z,21.19
2017-08-24T23:53:27.544Z,21.15
2017-08-24T23:55:55.007Z,21.02
2017-08-24T23:58:22.465Z,21.11
